Time;durP1;ratioP1;P1;durP2;ratioP2;P2;SDS_P1;SDS_P2;PMS_P1;PMS_P2;Temp;Humidity;BMP_temperature;BMP_pressure;BME280_temperature;BME280_humidity;BME280_pressure;Samples;Min_cycle;Max_cycle;Signal;HPM_P1;HPM_P2
2022/07/19 00:02:03;;;;;;;8.67;7.00;;;17.20;99.90;;;;;;5055058;28;20210;-49
2022/07/19 00:04:30;;;;;;;6.13;5.53;;;17.10;99.90;;;;;;5064104;28;20302;-47
2022/07/19 00:06:57;;;;;;;6.37;5.70;;;17.10;99.90;;;;;;5044073;28;20230;-52
2022/07/19 00:09:24;;;;;;;6.27;5.67;;;17.20;99.90;;;;;;5064198;28;20203;-49
2022/07/19 00:11:51;;;;;;;8.63;6.10;;;17.20;99.90;;;;;;5062004;28;20559;-52
2022/07/19 00:14:18;;;;;;;6.37;5.77;;;17.10;99.90;;;;;;5062722;28;20195;-49
2022/07/19 00:16:46;;;;;;;7.27;6.53;;;17.00;99.90;;;;;;5063147;28;20910;-54
2022/07/19 00:19:13;;;;;;;6.17;5.57;;;17.00;99.90;;;;;;5062112;28;20918;-51
2022/07/19 00:21:40;;;;;;;6.97;6.27;;;17.00;99.90;;;;;;5047157;28;20214;-52
2022/07/19 00:24:07;;;;;;;6.50;5.90;;;16.90;99.90;;;;;;5060047;28;20194;-51
2022/07/19 00:26:34;;;;;;;6.67;5.93;;;16.80;99.90;;;;;;5063770;28;20222;-50
2022/07/19 00:29:02;;;;;;;7.23;5.93;;;16.80;99.90;;;;;;5059947;28;20836;-48
2022/07/19 00:31:30;;;;;;;6.67;6.07;;;16.90;99.90;;;;;;5063895;28;20244;-49
2022/07/19 00:33:58;;;;;;;6.70;6.03;;;16.90;99.90;;;;;;5060024;28;20717;-56
2022/07/19 00:36:25;;;;;;;7.13;6.43;;;16.80;99.90;;;;;;5064101;28;20225;-50
2022/07/19 00:38:52;;;;;;;7.17;6.30;;;16.80;99.90;;;;;;5044878;28;20207;-54
2022/07/19 00:41:19;;;;;;;6.77;5.83;;;16.90;99.90;;;;;;5062184;28;20297;-51
2022/07/19 00:43:45;;;;;;;8.03;6.63;;;16.80;99.90;;;;;;5061246;28;20261;-51
2022/07/19 00:46:14;;;;;;;7.70;5.93;;;16.90;99.90;;;;;;5055057;28;20938;-51
2022/07/19 00:48:41;;;;;;;9.53;6.97;;;16.90;99.90;;;;;;5057407;28;20598;-53
2022/07/19 00:51:10;;;;;;;6.73;5.90;;;16.80;99.90;;;;;;5054322;28;20186;-51
2022/07/19 00:53:38;;;;;;;6.60;6.00;;;16.70;99.90;;;;;;5039598;28;20203;-53
2022/07/19 00:56:06;;;;;;;7.70;6.17;;;16.70;99.90;;;;;;5052826;28;20206;-48
2022/07/19 00:58:34;;;;;;;7.10;6.23;;;16.60;99.90;;;;;;5057351;28;20694;-48
2022/07/19 01:01:02;;;;;;;6.23;5.63;;;16.60;99.90;;;;;;5059631;28;20725;-52
2022/07/19 01:03:30;;;;;;;7.17;6.47;;;16.50;99.90;;;;;;5063471;28;20199;-46
2022/07/19 01:05:57;;;;;;;7.50;5.77;;;16.50;99.90;;;;;;5059798;28;20222;-52
2022/07/19 01:08:25;;;;;;;7.63;5.83;;;16.50;99.90;;;;;;5040334;28;20842;-50
2022/07/19 01:10:52;;;;;;;7.07;6.17;;;16.50;99.90;;;;;;5059097;28;20678;-49
2022/07/19 01:13:19;;;;;;;7.10;5.77;;;16.50;99.90;;;;;;5057236;28;20906;-50
2022/07/19 01:15:46;;;;;;;7.60;6.30;;;16.50;99.90;;;;;;5061888;28;20229;-54
2022/07/19 01:18:13;;;;;;;9.43;6.50;;;16.50;99.90;;;;;;5061013;28;20898;-49
2022/07/19 01:20:40;;;;;;;7.10;5.93;;;16.50;99.90;;;;;;5063419;28;20213;-52
2022/07/19 01:23:08;;;;;;;7.43;6.20;;;16.50;99.90;;;;;;5042829;28;20218;-51
2022/07/19 01:25:36;;;;;;;7.57;6.50;;;16.50;99.90;;;;;;5062590;28;20695;-47
2022/07/19 01:28:04;;;;;;;7.97;6.57;;;16.40;99.90;;;;;;5058686;28;20197;-47
2022/07/19 01:30:31;;;;;;;8.23;6.90;;;16.30;99.90;;;;;;5063261;28;20202;-49
2022/07/19 01:32:58;;;;;;;7.47;5.63;;;16.30;99.90;;;;;;5059428;28;20198;-49
2022/07/19 01:35:26;;;;;;;8.03;6.50;;;16.30;99.90;;;;;;5062905;28;20222;-49
2022/07/19 01:37:53;;;;;;;7.23;6.30;;;16.30;99.90;;;;;;5060318;28;20281;-51
2022/07/19 01:40:22;;;;;;;6.97;6.30;;;16.30;99.90;;;;;;5045404;28;20215;-47
2022/07/19 01:42:49;;;;;;;9.90;6.37;;;16.30;99.90;;;;;;5060565;28;20573;-49
2022/07/19 01:45:18;;;;;;;7.70;6.80;;;16.30;99.90;;;;;;5061114;28;20206;-47
2022/07/19 01:47:45;;;;;;;9.33;7.40;;;16.30;99.90;;;;;;5062378;28;20670;-50
2022/07/19 01:50:15;;;;;;;7.53;6.37;;;16.20;99.90;;;;;;5060653;28;20202;-48
2022/07/19 01:52:43;;;;;;;8.47;7.23;;;16.10;99.90;;;;;;5062439;28;20217;-51
2022/07/19 01:55:10;;;;;;;9.60;7.93;;;16.00;99.90;;;;;;5041811;28;20231;-51
2022/07/19 01:57:38;;;;;;;8.97;7.50;;;16.00;99.90;;;;;;5062970;28;20289;-49
2022/07/19 02:00:06;;;;;;;8.67;7.33;;;16.00;99.90;;;;;;5059068;28;20194;-50
2022/07/19 02:02:39;;;;;;;7.63;6.83;;;16.00;99.90;;;;;;5063126;28;20226;-47
2022/07/19 02:05:07;;;;;;;8.47;7.40;;;16.00;99.90;;;;;;5052485;28;20210;-48
2022/07/19 02:07:34;;;;;;;10.03;7.23;;;16.00;99.90;;;;;;5056349;28;20645;-50
2022/07/19 02:10:01;;;;;;;11.50;7.83;;;16.00;99.90;;;;;;5035167;28;20241;-49
2022/07/19 02:12:28;;;;;;;9.87;7.27;;;16.00;99.90;;;;;;5062593;28;20194;-48
2022/07/19 02:14:57;;;;;;;9.63;7.43;;;16.10;99.90;;;;;;5058753;28;20230;-52
2022/07/19 02:17:23;;;;;;;11.20;8.57;;;16.00;99.90;;;;;;5063361;28;20248;-50
2022/07/19 02:19:50;;;;;;;11.40;8.30;;;15.90;99.90;;;;;;5064554;28;20213;-52
2022/07/19 02:22:17;;;;;;;12.47;9.27;;;15.90;99.90;;;;;;5065173;28;20304;-51
2022/07/19 02:24:44;;;;;;;11.30;8.73;;;15.90;99.90;;;;;;5060011;28;20199;-54
2022/07/19 02:27:11;;;;;;;12.73;9.20;;;15.80;99.90;;;;;;5057794;28;20202;-49
2022/07/19 02:29:38;;;;;;;12.87;9.67;;;15.70;99.90;;;;;;5066354;28;20729;-49
2022/07/19 02:32:07;;;;;;;13.27;9.67;;;15.70;99.90;;;;;;5062457;28;20203;-50
2022/07/19 02:34:34;;;;;;;14.03;9.33;;;15.60;99.90;;;;;;5065990;28;20210;-52
2022/07/19 02:37:01;;;;;;;15.17;10.67;;;15.50;99.90;;;;;;5061452;28;20218;-49
2022/07/19 02:39:28;;;;;;;11.23;9.37;;;15.40;99.90;;;;;;5065813;28;20225;-49
2022/07/19 02:41:56;;;;;;;18.77;11.33;;;15.50;99.90;;;;;;5049309;28;20211;-50
2022/07/19 02:44:23;;;;;;;18.63;11.93;;;15.50;99.90;;;;;;5065359;28;20202;-52
2022/07/19 02:46:51;;;;;;;19.30;13.33;;;15.50;99.90;;;;;;5063876;28;20215;-53
2022/07/19 02:49:20;;;;;;;18.07;13.40;;;15.50;99.90;;;;;;5064900;28;20195;-51
2022/07/19 02:51:47;;;;;;;21.87;14.37;;;15.50;99.90;;;;;;5064577;28;20234;-49
2022/07/19 02:54:14;;;;;;;27.40;16.93;;;15.50;99.90;;;;;;5063556;28;20222;-48
2022/07/19 02:56:41;;;;;;;24.63;16.90;;;15.50;99.90;;;;;;5048524;28;20237;-52
2022/07/19 02:59:08;;;;;;;29.63;18.13;;;15.50;99.90;;;;;;5062461;28;20202;-48
2022/07/19 03:01:35;;;;;;;27.53;16.97;;;15.50;99.90;;;;;;5065919;28;20202;-53
2022/07/19 03:04:02;;;;;;;28.13;18.43;;;15.40;99.90;;;;;;5061409;28;20217;-49
2022/07/19 03:06:30;;;;;;;25.57;15.83;;;15.40;99.90;;;;;;5065853;28;20229;-51
2022/07/19 03:08:57;;;;;;;25.27;17.07;;;15.40;99.90;;;;;;5061875;28;20221;-53
2022/07/19 03:11:24;;;;;;;24.73;16.57;;;15.40;99.90;;;;;;5048496;28;20663;-50
2022/07/19 03:13:51;;;;;;;27.43;16.50;;;15.40;99.90;;;;;;5062802;28;20745;-50
2022/07/19 03:16:19;;;;;;;28.67;17.53;;;15.30;99.90;;;;;;5064224;28;20221;-48
2022/07/19 03:18:46;;;;;;;20.17;15.03;;;15.20;99.90;;;;;;5064206;28;20595;-54
2022/07/19 03:21:12;;;;;;;23.23;15.23;;;15.10;99.90;;;;;;5063152;28;20213;-49
2022/07/19 03:23:41;;;;;;;22.17;15.47;;;15.00;99.90;;;;;;5064974;28;20222;-51
2022/07/19 03:26:08;;;;;;;25.63;16.57;;;15.00;99.90;;;;;;5045406;28;20231;-47
2022/07/19 03:28:35;;;;;;;24.80;15.13;;;15.10;99.90;;;;;;5065057;28;20199;-50
2022/07/19 03:31:03;;;;;;;19.80;14.20;;;15.10;99.90;;;;;;5061266;28;20894;-53
2022/07/19 03:33:30;;;;;;;22.80;14.03;;;15.20;99.90;;;;;;5064982;28;20589;-50
2022/07/19 03:35:57;;;;;;;22.80;13.77;;;15.20;99.90;;;;;;5061798;28;20215;-48
2022/07/19 03:38:24;;;;;;;17.00;12.57;;;15.30;99.90;;;;;;5064893;28;20202;-49
2022/07/19 03:40:52;;;;;;;19.13;12.47;;;15.20;99.90;;;;;;5052274;28;20207;-51
2022/07/19 03:43:23;;;;;;;17.77;12.90;;;15.10;99.90;;;;;;5059675;28;20721;-47
2022/07/19 03:45:50;;;;;;;19.27;12.40;;;15.10;99.90;;;;;;5062779;28;20246;-51
2022/07/19 03:48:18;;;;;;;17.70;11.93;;;15.20;99.90;;;;;;5063475;28;20186;-53
2022/07/19 03:50:45;;;;;;;19.27;12.60;;;15.20;99.90;;;;;;5063680;28;20209;-51
2022/07/19 03:53:12;;;;;;;19.53;12.80;;;15.10;99.90;;;;;;5061940;28;20266;-49
2022/07/19 03:55:39;;;;;;;19.13;12.07;;;15.00;99.90;;;;;;5063535;28;20219;-46
2022/07/19 03:58:07;;;;;;;17.70;12.27;;;15.10;99.90;;;;;;5047025;28;20205;-47
2022/07/19 04:00:34;;;;;;;15.33;11.20;;;15.10;99.90;;;;;;5064877;28;20565;-46
2022/07/19 04:03:00;;;;;;;15.30;11.63;;;15.10;99.90;;;;;;5060561;28;20218;-51
2022/07/19 04:05:27;;;;;;;18.47;11.40;;;15.10;99.90;;;;;;5064291;28;20245;-47
2022/07/19 04:07:54;;;;;;;17.83;11.00;;;15.10;99.90;;;;;;5061490;28;20202;-50
2022/07/19 04:10:24;;;;;;;16.60;11.40;;;15.20;99.90;;;;;;5064117;28;20289;-47
2022/07/19 04:12:51;;;;;;;17.80;11.60;;;15.20;99.90;;;;;;5045927;28;20206;-54
2022/07/19 04:15:19;;;;;;;15.30;10.87;;;15.20;99.90;;;;;;5062666;28;20930;-55
2022/07/19 04:17:46;;;;;;;19.77;12.07;;;15.20;99.90;;;;;;5063267;28;20256;-53
2022/07/19 04:20:13;;;;;;;15.57;11.43;;;15.20;99.90;;;;;;5061975;28;20218;-50
2022/07/19 04:22:40;;;;;;;15.00;10.80;;;15.20;99.90;;;;;;5064080;28;20223;-49
2022/07/19 04:25:08;;;;;;;16.07;10.30;;;15.30;99.90;;;;;;5059971;28;20214;-49
2022/07/19 04:27:34;;;;;;;13.77;9.93;;;15.30;99.90;;;;;;5064095;28;20563;-50
2022/07/19 04:30:01;;;;;;;15.90;9.53;;;15.20;99.90;;;;;;5043148;28;20240;-48
2022/07/19 04:32:29;;;;;;;13.43;8.97;;;15.20;99.90;;;;;;5064284;28;20221;-54
2022/07/19 04:34:57;;;;;;;14.00;8.30;;;15.20;99.90;;;;;;5059917;28;20234;-51
2022/07/19 04:37:24;;;;;;;11.17;9.13;;;15.20;99.90;;;;;;5063884;28;20206;-49
2022/07/19 04:39:51;;;;;;;13.83;10.60;;;15.30;99.90;;;;;;5061101;28;20261;-52
2022/07/19 04:42:18;;;;;;;12.17;9.23;;;15.30;99.90;;;;;;5062058;28;20191;-48
2022/07/19 04:44:46;;;;;;;13.17;9.23;;;15.40;99.90;;;;;;5077948;28;20559;-52
2022/07/19 04:47:12;;;;;;;11.40;8.50;;;15.40;99.90;;;;;;5060351;28;21018;-50
2022/07/19 04:49:41;;;;;;;11.33;9.07;;;15.40;99.90;;;;;;5063419;28;20217;-49
2022/07/19 04:52:08;;;;;;;9.60;8.13;;;15.50;99.90;;;;;;5060449;28;20201;-47
2022/07/19 04:54:35;;;;;;;13.63;9.47;;;15.60;99.90;;;;;;5062447;28;20198;-49
2022/07/19 04:57:02;;;;;;;11.23;7.90;;;15.60;99.90;;;;;;5059059;28;20926;-51
2022/07/19 04:59:28;;;;;;;13.40;8.50;;;15.60;99.90;;;;;;5046560;28;20701;-50
2022/07/19 05:01:55;;;;;;;11.87;8.70;;;15.70;99.90;;;;;;5059865;28;20194;-54
2022/07/19 05:04:22;;;;;;;14.37;9.00;;;15.70;99.90;;;;;;5062627;28;20227;-47
2022/07/19 05:06:56;;;;;;;11.30;8.60;;;15.80;99.90;;;;;;5061479;28;20261;-50
2022/07/19 05:09:23;;;;;;;9.33;8.13;;;15.90;99.90;;;;;;5057894;28;20970;-51
2022/07/19 05:11:50;;;;;;;10.07;7.60;;;15.90;99.90;;;;;;5061490;28;20199;-46
2022/07/19 05:14:16;;;;;;;10.03;8.20;;;15.90;99.90;;;;;;5044728;28;20209;-49
2022/07/19 05:16:43;;;;;;;11.37;7.67;;;16.00;99.90;;;;;;5062201;28;20229;-49
2022/07/19 05:19:10;;;;;;;8.50;7.10;;;16.10;99.90;;;;;;5060455;28;20423;-48
2022/07/19 05:21:37;;;;;;;8.53;6.97;;;16.20;99.90;;;;;;5063575;28;20233;-47
2022/07/19 05:24:06;;;;;;;7.90;6.67;;;16.30;99.90;;;;;;5058602;28;20855;-48
2022/07/19 05:26:33;;;;;;;9.97;7.43;;;16.40;99.90;;;;;;5063376;28;20218;-49
2022/07/19 05:29:00;;;;;;;9.50;7.23;;;16.50;99.90;;;;;;5042457;28;20202;-53
2022/07/19 05:31:27;;;;;;;8.17;6.60;;;16.50;99.90;;;;;;5063096;28;20199;-49
2022/07/19 05:33:54;;;;;;;10.47;7.07;;;16.60;99.90;;;;;;5092311;28;20203;-52
2022/07/19 05:36:20;;;;;;;8.10;6.07;;;16.60;99.90;;;;;;5062571;28;20586;-51
2022/07/19 05:38:50;;;;;;;7.10;6.30;;;16.70;99.90;;;;;;5060981;28;20294;-49
2022/07/19 05:41:21;;;;;;;10.93;6.23;;;16.80;99.90;;;;;;5061399;28;20210;-47
2022/07/19 05:43:50;;;;;;;8.15;6.93;;;16.90;99.90;;;;;;5059693;28;20438;-51
2022/07/19 05:46:17;;;;;;;8.70;7.75;;;17.30;99.90;;;;;;5043259;28;20548;-50
2022/07/19 05:48:44;;;;;;;8.18;6.70;;;17.60;99.90;;;;;;5060908;28;20430;-49
2022/07/19 05:51:11;;;;;;;7.40;6.60;;;17.90;99.90;;;;;;5059833;28;20416;-47
2022/07/19 05:53:38;;;;;;;7.90;7.13;;;18.10;99.90;;;;;;5064253;28;20432;-48
2022/07/19 05:56:06;;;;;;;8.13;6.10;;;18.30;99.90;;;;;;5063143;28;20225;-49
2022/07/19 05:58:35;;;;;;;6.50;5.77;;;18.30;99.90;;;;;;5067136;28;20209;-48
2022/07/19 06:01:22;;;;;;;8.03;5.97;;;18.30;99.90;;;;;;5045560;28;20479;-47
2022/07/19 06:03:51;;;;;;;7.60;5.80;;;18.40;99.90;;;;;;5063436;28;20207;-50
2022/07/19 06:06:18;;;;;;;6.20;5.60;;;18.50;99.90;;;;;;5065398;28;20275;-47
2022/07/19 06:08:46;;;;;;;7.37;5.30;;;18.50;99.90;;;;;;5065592;28;20202;-51
2022/07/19 06:11:13;;;;;;;7.23;6.03;;;18.50;99.90;;;;;;5064472;28;20210;-47
2022/07/19 06:13:42;;;;;;;6.23;5.63;;;18.60;99.90;;;;;;5066000;28;20195;-49
2022/07/19 06:16:10;;;;;;;7.00;5.80;;;18.70;99.90;;;;;;5045945;28;22283;-49
2022/07/19 06:18:37;;;;;;;6.13;5.23;;;18.90;99.90;;;;;;5065603;28;20202;-48
2022/07/19 06:21:07;;;;;;;6.73;5.90;;;19.00;99.90;;;;;;5062102;28;20301;-47
2022/07/19 06:23:33;;;;;;;6.00;5.40;;;19.00;99.90;;;;;;5065897;28;20214;-50
2022/07/19 06:26:00;;;;;;;8.20;5.73;;;19.10;99.90;;;;;;5062482;28;20222;-48
2022/07/19 06:28:28;;;;;;;6.53;5.43;;;19.20;99.90;;;;;;5066665;28;20559;-47
2022/07/19 06:30:56;;;;;;;5.27;4.77;;;19.30;99.90;;;;;;5096111;28;20210;-51
2022/07/19 06:33:23;;;;;;;5.90;5.40;;;19.40;99.90;;;;;;5047534;28;20213;-50
2022/07/19 06:35:50;;;;;;;6.03;4.93;;;19.50;99.90;;;;;;5063588;28;20640;-51
2022/07/19 06:38:17;;;;;;;9.10;5.47;;;19.60;99.90;;;;;;5062647;28;20252;-49
2022/07/19 06:40:44;;;;;;;6.63;5.07;;;19.80;99.90;;;;;;5065244;28;20230;-52
2022/07/19 06:43:11;;;;;;;6.27;5.07;;;19.90;99.90;;;;;;5063087;28;20937;-50
2022/07/19 06:45:38;;;;;;;5.33;4.70;;;20.10;99.90;;;;;;5066176;28;20233;-50
2022/07/19 06:48:07;;;;;;;5.47;4.97;;;20.30;99.90;;;;;;5076859;27;20264;-51
2022/07/19 06:50:34;;;;;;;7.03;5.47;;;20.60;99.90;;;;;;5061849;28;20289;-51
2022/07/19 06:53:01;;;;;;;5.70;5.07;;;20.80;99.90;;;;;;5061858;28;20198;-50
2022/07/19 06:55:28;;;;;;;7.00;5.10;;;20.90;99.90;;;;;;5065694;28;20229;-49
2022/07/19 06:57:55;;;;;;;5.23;4.27;;;21.10;99.90;;;;;;5062713;28;20202;-52
2022/07/19 07:00:22;;;;;;;7.13;4.57;;;21.30;99.90;;;;;;5065570;28;20202;-48
2022/07/19 07:02:49;;;;;;;6.63;5.27;;;21.50;99.90;;;;;;5055261;28;20534;-51
2022/07/19 07:05:17;;;;;;;5.17;4.67;;;21.60;99.90;;;;;;5055970;28;20405;-54
2022/07/19 07:07:44;;;;;;;5.43;4.33;;;21.70;99.90;;;;;;5064657;28;20234;-50
2022/07/19 07:10:12;;;;;;;6.47;4.77;;;21.80;99.90;;;;;;5063339;28;20199;-50
2022/07/19 07:12:39;;;;;;;4.77;4.27;;;21.90;99.90;;;;;;5065942;28;20686;-51
2022/07/19 07:15:07;;;;;;;4.67;4.27;;;22.00;99.90;;;;;;5060608;28;20211;-46
2022/07/19 07:17:34;;;;;;;6.97;5.30;;;22.10;99.90;;;;;;5065364;28;20202;-51
2022/07/19 07:20:01;;;;;;;6.60;4.80;;;22.20;99.90;;;;;;5043315;28;20202;-49
2022/07/19 07:22:30;;;;;;;6.43;4.83;;;22.30;99.90;;;;;;5065601;28;20205;-48
2022/07/19 07:24:56;;;;;;;5.53;4.80;;;22.50;99.90;;;;;;5061639;28;20658;-47
2022/07/19 07:27:23;;;;;;;6.17;4.80;;;22.60;99.90;;;;;;5065306;28;20203;-49
2022/07/19 07:29:50;;;;;;;5.40;4.90;;;22.80;99.90;;;;;;5063128;28;20205;-52
2022/07/19 07:32:17;;;;;;;5.27;4.60;;;23.00;99.90;;;;;;5063810;28;20932;-52
2022/07/19 07:34:44;;;;;;;7.73;4.83;;;23.10;99.90;;;;;;5046324;28;20202;-51
2022/07/19 07:37:11;;;;;;;7.47;4.40;;;23.30;99.90;;;;;;5062590;28;20187;-48
2022/07/19 07:39:40;;;;;;;5.40;4.07;;;23.40;99.90;;;;;;5065355;28;20210;-47
2022/07/19 07:42:07;;;;;;;5.15;3.80;;;23.60;99.40;;;;;;5061674;28;20801;-48
2022/07/19 07:44:34;;;;;;;6.38;4.20;;;23.80;98.20;;;;;;5064666;28;20222;-53
2022/07/19 07:47:00;;;;;;;7.32;4.25;;;24.00;97.50;;;;;;5060807;28;20895;-49
2022/07/19 07:49:28;;;;;;;4.65;3.63;;;24.10;96.50;;;;;;5064790;28;20199;-52
2022/07/19 07:51:54;;;;;;;8.18;4.50;;;24.20;95.90;;;;;;5044525;28;20205;-49
2022/07/19 07:54:21;;;;;;;6.22;4.10;;;24.30;95.30;;;;;;5063810;28;20203;-50
2022/07/19 07:56:49;;;;;;;7.85;4.85;;;24.40;94.70;;;;;;5063420;28;20222;-50
2022/07/19 07:59:16;;;;;;;6.15;4.35;;;24.50;94.10;;;;;;5063167;28;20198;-48
2022/07/19 08:01:44;;;;;;;4.68;4.10;;;24.60;93.80;;;;;;5064102;28;20233;-51
2022/07/19 08:04:11;;;;;;;4.72;3.78;;;24.60;93.90;;;;;;5061268;28;20238;-50
2022/07/19 08:06:38;;;;;;;5.88;3.92;;;24.70;93.70;;;;;;5047185;28;20226;-51
2022/07/19 08:09:05;;;;;;;5.63;4.10;;;24.80;93.20;;;;;;5060480;28;20271;-49
2022/07/19 08:11:32;;;;;;;5.53;4.18;;;24.90;92.50;;;;;;5064484;28;20706;-48
2022/07/19 08:14:01;;;;;;;5.25;4.28;;;25.10;91.40;;;;;;5060088;28;20194;-50
2022/07/19 08:16:27;;;;;;;4.82;3.53;;;25.20;91.10;;;;;;5061321;28;20214;-50
2022/07/19 08:18:55;;;;;;;4.45;4.03;;;25.30;90.30;;;;;;5061167;28;20199;-47
2022/07/19 08:21:21;;;;;;;6.60;3.97;;;25.50;89.50;;;;;;5040381;28;20211;-48
2022/07/19 08:23:48;;;;;;;5.75;4.00;;;25.50;88.50;;;;;;5060233;28;20207;-52
2022/07/19 08:26:15;;;;;;;4.55;4.13;;;25.60;87.90;;;;;;5062307;28;20939;-49
2022/07/19 08:28:42;;;;;;;4.78;4.20;;;25.80;87.50;;;;;;5063611;28;20285;-51
2022/07/19 08:31:11;;;;;;;6.03;4.20;;;25.80;87.10;;;;;;5059894;28;20270;-49
2022/07/19 08:33:39;;;;;;;4.60;4.15;;;26.00;86.40;;;;;;5063770;28;20560;-47
2022/07/19 08:36:07;;;;;;;6.68;3.38;;;26.10;83.60;;;;;;5042967;28;20226;-49
2022/07/19 08:38:34;;;;;;;6.95;3.42;;;26.30;81.60;;;;;;5063862;28;20202;-47
2022/07/19 08:41:02;;;;;;;5.15;3.92;;;26.30;79.60;;;;;;5059988;28;20206;-51
2022/07/19 08:43:30;;;;;;;5.53;4.70;;;26.40;79.50;;;;;;5063579;28;20202;-48
2022/07/19 08:46:00;;;;;;;5.45;3.85;;;26.50;78.10;;;;;;5059836;28;20234;-49
2022/07/19 08:48:30;;;;;;;7.60;3.90;;;26.60;77.40;;;;;;5057446;28;20281;-47
2022/07/19 08:50:57;;;;;;;4.18;3.63;;;26.60;76.70;;;;;;5038689;28;20225;-49
2022/07/19 08:53:24;;;;;;;4.32;3.92;;;26.70;76.20;;;;;;5062621;28;20198;-50
2022/07/19 08:55:52;;;;;;;5.07;3.33;;;26.80;75.50;;;;;;5060034;28;20221;-54
2022/07/19 08:58:18;;;;;;;3.92;3.35;;;26.80;74.70;;;;;;5056189;28;20187;-47
2022/07/19 09:00:45;;;;;;;4.90;4.03;;;26.90;74.40;;;;;;5062111;28;20194;-53
2022/07/19 09:03:12;;;;;;;4.15;3.75;;;26.90;74.10;;;;;;5060454;28;20195;-49
2022/07/19 09:05:40;;;;;;;5.28;4.00;;;27.00;73.40;;;;;;5063173;28;20240;-52
2022/07/19 09:08:10;;;;;;;5.00;4.20;;;27.10;73.20;;;;;;5045566;28;20424;-51
2022/07/19 09:10:39;;;;;;;4.45;4.05;;;27.20;71.70;;;;;;5060498;28;20195;-47
2022/07/19 09:13:09;;;;;;;4.70;3.67;;;27.30;70.90;;;;;;5052355;28;20276;-48
2022/07/19 09:15:45;;;;;;;8.23;3.88;;;27.30;70.70;;;;;;5060085;28;20305;-48
2022/07/19 09:18:15;;;;;;;4.20;3.80;;;27.40;71.20;;;;;;5061042;28;20985;-47
2022/07/19 09:20:45;;;;;;;6.07;4.40;;;27.50;71.10;;;;;;5060349;28;20660;-49
2022/07/19 09:23:12;;;;;;;6.35;4.15;;;27.60;70.10;;;;;;5049340;28;20237;-48
2022/07/19 09:25:41;;;;;;;4.05;3.70;;;27.70;69.20;;;;;;5063165;28;20222;-48
2022/07/19 09:28:09;;;;;;;4.60;4.03;;;27.70;69.00;;;;;;5059957;28;20891;-47
2022/07/19 09:30:39;;;;;;;4.82;4.43;;;27.80;69.40;;;;;;5063327;28;20199;-50
2022/07/19 09:33:12;;;;;;;4.78;3.92;;;27.90;68.50;;;;;;5058625;28;20935;-50
2022/07/19 09:35:42;;;;;;;5.70;3.88;;;28.00;68.30;;;;;;5062856;28;20215;-49
2022/07/19 09:38:27;;;;;;;5.95;3.83;;;28.10;66.40;;;;;;5047181;28;20202;-50
2022/07/19 09:41:09;;;;;;;5.75;3.70;;;28.20;63.20;;;;;;5060221;28;20221;-48
2022/07/19 09:43:50;;;;;;;5.88;4.13;;;28.20;63.00;;;;;;5062848;28;20209;-52
2022/07/19 09:46:29;;;;;;;4.63;3.10;;;28.40;60.80;;;;;;5061618;28;20495;-48
2022/07/19 09:49:04;;;;;;;5.10;3.50;;;28.40;61.50;;;;;;5059614;28;20206;-53
2022/07/19 09:51:34;;;;;;;4.55;3.50;;;28.50;61.00;;;;;;5062851;28;20201;-48
2022/07/19 09:54:05;;;;;;;8.07;3.60;;;28.60;60.50;;;;;;5041324;28;20209;-47
2022/07/19 09:56:33;;;;;;;4.18;2.88;;;28.70;60.20;;;;;;5062994;28;20229;-49
2022/07/19 09:59:00;;;;;;;7.63;3.55;;;28.60;58.30;;;;;;5059012;28;20202;-52
2022/07/19 10:01:29;;;;;;;4.13;3.10;;;28.60;57.50;;;;;;5063247;28;20202;-48
2022/07/19 10:03:59;;;;;;;3.50;3.17;;;28.70;57.80;;;;;;5058851;28;20203;-52
2022/07/19 10:06:26;;;;;;;5.00;3.25;;;28.70;57.30;;;;;;5062652;28;20691;-49
2022/07/19 10:08:54;;;;;;;4.32;3.60;;;28.70;57.50;;;;;;5043311;28;20210;-49
2022/07/19 10:11:22;;;;;;;4.90;3.78;;;28.70;57.60;;;;;;5062262;28;20222;-47
2022/07/19 10:13:50;;;;;;;4.18;3.30;;;28.80;57.10;;;;;;5060338;28;20203;-51
2022/07/19 10:16:22;;;;;;;5.28;3.40;;;28.70;56.90;;;;;;5060572;28;20210;-47
2022/07/19 10:18:59;;;;;;;4.00;3.50;;;28.90;56.90;;;;;;5060478;28;20206;-52
2022/07/19 10:21:26;;;;;;;5.20;3.17;;;29.10;57.40;;;;;;5062625;28;20194;-48
2022/07/19 10:23:54;;;;;;;6.03;3.08;;;29.10;56.60;;;;;;5042795;28;20206;-49
2022/07/19 10:26:36;;;;;;;2.97;2.67;;;29.20;55.60;;;;;;5061540;28;20223;-47
2022/07/19 10:29:10;;;;;;;3.60;3.30;;;29.30;53.60;;;;;;5058529;28;20199;-52
2022/07/19 10:31:39;;;;;;;3.38;3.00;;;29.50;54.10;;;;;;5062653;28;20194;-47
2022/07/19 10:34:08;;;;;;;7.43;3.15;;;29.60;54.10;;;;;;5058561;28;20900;-55
2022/07/19 10:36:40;;;;;;;3.40;3.10;;;29.60;53.90;;;;;;5061678;28;20223;-47
2022/07/19 10:39:26;;;;;;;3.33;3.03;;;29.50;53.60;;;;;;5041481;28;21330;-49
2022/07/19 10:42:23;;;;;;;3.95;2.83;;;29.50;52.20;;;;;;5062144;28;20594;-49
2022/07/19 10:45:12;;;;;;;3.22;2.92;;;29.40;52.50;;;;;;5039592;28;20234;-48
2022/07/19 10:48:02;;;;;;;2.83;2.38;;;29.60;51.00;;;;;;5066347;28;20655;-48
2022/07/19 10:50:56;;;;;;;2.88;2.67;;;29.80;51.20;;;;;;5065785;28;20191;-48
2022/07/19 10:53:58;;;;;;;3.30;3.00;;;29.90;49.20;;;;;;5065426;28;20290;-50
2022/07/19 10:56:34;;;;;;;3.97;2.67;;;29.80;48.40;;;;;;5065047;28;20222;-48
2022/07/19 10:59:05;;;;;;;2.60;2.40;;;29.80;50.00;;;;;;5061748;28;20207;-47
2022/07/19 11:01:34;;;;;;;2.50;2.30;;;29.80;50.50;;;;;;5059546;28;20190;-51
2022/07/19 11:04:24;;;;;;;3.35;2.50;;;30.00;49.60;;;;;;5055151;28;20201;-54
2022/07/19 11:06:52;;;;;;;3.60;2.70;;;30.00;48.60;;;;;;5059818;28;20226;-52
2022/07/19 11:09:19;;;;;;;3.28;2.40;;;30.10;48.90;;;;;;5064600;28;20183;-48
2022/07/19 11:11:45;;;;;;;2.92;2.25;;;30.20;49.10;;;;;;5046915;28;20214;-49
2022/07/19 11:14:14;;;;;;;2.88;2.58;;;30.40;49.20;;;;;;5061716;28;20203;-47
2022/07/19 11:16:41;;;;;;;2.55;2.35;;;30.50;48.30;;;;;;5065279;28;20215;-51
2022/07/19 11:19:10;;;;;;;1.98;1.88;;;30.70;47.80;;;;;;5062241;28;20275;-52
2022/07/19 11:21:37;;;;;;;3.17;2.30;;;30.60;47.30;;;;;;5065409;28;20202;-50
2022/07/19 11:24:05;;;;;;;3.08;2.38;;;;;;;;;;5061109;28;20234;-47
2022/07/19 11:26:37;;;;;;;4.90;2.25;;;30.70;45.90;;;;;;5048087;28;20218;-50
2022/07/19 11:29:04;;;;;;;3.38;2.38;;;30.90;46.10;;;;;;5058069;28;20214;-47
2022/07/19 11:31:32;;;;;;;2.58;2.38;;;30.90;45.40;;;;;;5065427;28;20682;-51
2022/07/19 11:34:01;;;;;;;3.33;2.33;;;30.70;45.30;;;;;;5060957;28;20829;-49
2022/07/19 11:36:28;;;;;;;2.30;2.20;;;30.80;45.90;;;;;;5065089;28;20219;-48
2022/07/19 11:38:58;;;;;;;2.40;2.20;;;30.90;45.50;;;;;;5062024;28;20281;-49
2022/07/19 11:41:28;;;;;;;2.42;2.22;;;31.00;44.90;;;;;;5065293;28;20210;-50
2022/07/19 11:43:58;;;;;;;2.67;2.15;;;31.00;44.60;;;;;;5043840;28;20217;-49
2022/07/19 11:46:26;;;;;;;2.50;2.30;;;30.90;44.10;;;;;;5064945;28;20745;-47
2022/07/19 11:48:58;;;;;;;3.03;2.70;;;30.90;44.80;;;;;;5062282;28;20222;-51
2022/07/19 11:51:26;;;;;;;2.70;2.50;;;31.00;45.10;;;;;;5064952;28;20199;-49
2022/07/19 11:53:54;;;;;;;2.38;2.10;;;31.10;44.90;;;;;;5062111;28;20191;-51
2022/07/19 11:56:23;;;;;;;6.35;2.42;;;31.10;44.70;;;;;;5063148;28;20291;-49
2022/07/19 11:58:52;;;;;;;2.90;2.33;;;31.00;45.00;;;;;;5045094;28;20663;-47
2022/07/19 12:01:24;;;;;;;4.07;2.20;;;31.10;45.50;;;;;;5063511;28;20197;-48
2022/07/19 12:04:00;;;;;;;1.77;1.67;;;31.20;46.10;;;;;;5061983;28;20920;-50
2022/07/19 12:06:37;;;;;;;2.22;2.03;;;31.50;44.90;;;;;;5064408;28;20222;-50
2022/07/19 12:09:07;;;;;;;2.83;2.15;;;31.80;42.70;;;;;;5060466;28;20194;-49
2022/07/19 12:11:40;;;;;;;2.42;1.80;;;32.00;42.30;;;;;;5064407;28;20226;-51
2022/07/19 12:14:19;;;;;;;2.97;1.70;;;31.90;41.80;;;;;;5044080;28;20960;-51
2022/07/19 12:16:46;;;;;;;1.80;1.70;;;31.90;42.10;;;;;;5063070;28;20273;-52
2022/07/19 12:19:17;;;;;;;2.00;1.80;;;31.90;42.40;;;;;;5062089;28;20195;-49
2022/07/19 12:21:44;;;;;;;3.45;1.92;;;32.10;42.50;;;;;;5063320;28;20954;-47
2022/07/19 12:24:20;;;;;;;2.00;1.90;;;32.20;41.50;;;;;;5061423;28;20197;-52
2022/07/19 12:27:16;;;;;;;2.60;2.15;;;32.00;40.40;;;;;;5062290;28;20230;-48
2022/07/19 12:29:46;;;;;;;2.42;2.20;;;32.00;41.20;;;;;;5030880;28;20222;-50
2022/07/19 12:32:15;;;;;;;3.03;2.15;;;32.10;40.60;;;;;;5061707;28;20260;-51
2022/07/19 12:34:46;;;;;;;4.18;2.10;;;32.10;40.90;;;;;;5063241;28;20207;-48
2022/07/19 12:37:25;;;;;;;3.70;2.75;;;32.30;40.90;;;;;;5061776;28;20191;-46
2022/07/19 12:40:01;;;;;;;3.42;2.08;;;32.50;40.80;;;;;;5061208;28;20214;-49
2022/07/19 12:42:37;;;;;;;2.55;1.98;;;32.70;40.60;;;;;;5063976;28;20653;-48
2022/07/19 12:45:06;;;;;;;2.35;1.98;;;32.70;41.00;;;;;;5041917;28;20831;-47
2022/07/19 12:47:32;;;;;;;2.50;1.90;;;33.00;40.80;;;;;;5063670;28;20202;-48
2022/07/19 12:50:01;;;;;;;3.17;2.00;;;33.30;39.90;;;;;;5060000;28;20285;-49
2022/07/19 12:52:29;;;;;;;1.80;1.65;;;33.30;40.20;;;;;;5064168;28;20213;-48